createdAt,value
2022-08-23T01:20:45.748Z,18.50
2022-08-23T01:23:26.441Z,18.50
2022-08-23T01:25:55.213Z,18.50
2022-08-23T01:28:24.097Z,18.40
2022-08-23T01:30:52.585Z,18.40
2022-08-23T01:33:50.049Z,18.40
2022-08-23T01:36:20.094Z,18.40
2022-08-23T01:38:52.572Z,18.40
2022-08-23T01:41:22.576Z,18.40
2022-08-23T01:43:52.815Z,18.40
2022-08-23T01:50:00.174Z,18.40
2022-08-23T01:56:55.129Z,18.30
2022-08-23T01:59:24.353Z,18.30
2022-08-23T02:02:37.081Z,18.30
2022-08-23T02:05:10.269Z,18.30
2022-08-23T02:07:40.113Z,18.30
2022-08-23T02:10:11.195Z,18.20
2022-08-23T02:12:56.697Z,18.20
2022-08-23T02:15:25.451Z,18.20
2022-08-23T02:17:55.890Z,18.20
2022-08-23T02:20:24.716Z,18.20
2022-08-23T02:23:39.420Z,18.20
2022-08-23T02:26:08.057Z,18.30
2022-08-23T02:28:38.402Z,18.30
2022-08-23T02:38:54.766Z,18.40
2022-08-23T02:44:57.896Z,18.50
2022-08-23T02:47:26.621Z,18.50
2022-08-23T02:50:15.563Z,18.50
2022-08-23T02:53:31.869Z,18.50
2022-08-23T02:56:01.979Z,18.50
2022-08-23T02:58:30.521Z,18.50
2022-08-23T03:01:01.422Z,18.50
2022-08-23T03:07:08.226Z,18.40
2022-08-23T03:10:07.269Z,18.30
2022-08-23T03:12:38.857Z,18.30
2022-08-23T03:15:08.380Z,18.20
2022-08-23T03:17:38.346Z,18.20
2022-08-23T03:20:11.017Z,18.20
2022-08-23T03:23:17.618Z,18.20
2022-08-23T03:25:47.204Z,18.10
2022-08-23T03:28:23.565Z,18.10
2022-08-23T03:30:52.668Z,18.10
2022-08-23T03:33:22.671Z,18.10
2022-08-23T03:36:07.644Z,18.10
2022-08-23T03:38:37.000Z,18.10
2022-08-23T03:41:08.257Z,18.10
2022-08-23T03:43:37.907Z,18.10
2022-08-23T03:46:08.169Z,18.20
2022-08-23T03:48:42.924Z,18.20
2022-08-23T03:51:11.385Z,18.20
2022-08-23T03:53:45.241Z,18.30
2022-08-23T03:56:22.643Z,18.30
2022-08-23T03:58:51.688Z,18.40
2022-08-23T04:01:44.194Z,18.40
2022-08-23T04:04:14.365Z,18.50
2022-08-23T04:06:57.120Z,18.50
2022-08-23T04:09:26.153Z,18.60
2022-08-23T04:12:40.830Z,18.60
2022-08-23T04:15:14.843Z,18.70
2022-08-23T04:17:44.047Z,18.70
2022-08-23T04:20:14.091Z,18.80
2022-08-23T04:23:04.109Z,18.80
2022-08-23T04:29:33.801Z,18.90
2022-08-23T04:32:05.641Z,19.00
2022-08-23T04:34:45.341Z,19.00
2022-08-23T04:37:18.729Z,19.00
2022-08-23T04:40:04.632Z,19.10
2022-08-23T04:42:46.234Z,19.10
2022-08-23T04:46:00.746Z,19.10
2022-08-23T04:48:35.935Z,19.20
2022-08-23T04:51:04.487Z,19.20
2022-08-23T05:50:09.054Z,20.10
2022-08-23T05:52:40.369Z,20.10
2022-08-23T05:55:09.468Z,20.10
2022-08-23T05:57:57.061Z,20.10
2022-08-23T06:00:38.126Z,20.20
2022-08-23T06:03:12.303Z,20.30
2022-08-23T06:05:43.215Z,20.40
2022-08-23T06:08:13.277Z,20.40
2022-08-23T06:10:43.094Z,20.50
2022-08-23T06:13:26.467Z,20.50
2022-08-23T06:15:55.276Z,20.60
2022-08-23T06:18:24.283Z,20.70
2022-08-23T06:21:04.027Z,20.70
2022-08-23T06:23:43.711Z,20.80
2022-08-23T06:26:14.307Z,20.90
2022-08-23T06:28:50.792Z,20.90
2022-08-23T06:31:41.174Z,21.00
2022-08-23T06:34:15.632Z,21.00
2022-08-23T06:41:18.804Z,21.20
2022-08-23T06:44:11.549Z,21.30
2022-08-23T06:47:04.928Z,21.40
2022-08-23T06:49:33.800Z,21.50
2022-08-23T06:52:08.197Z,21.70
2022-08-23T06:55:13.123Z,21.70
2022-08-23T07:03:24.710Z,21.90
2022-08-23T07:06:29.681Z,22.00
2022-08-23T07:08:59.026Z,22.00
2022-08-23T07:15:32.724Z,22.00
2022-08-23T07:21:45.942Z,22.40
2022-08-23T07:24:18.432Z,22.30
2022-08-23T07:26:47.578Z,22.40
2022-08-23T07:29:17.698Z,22.60
2022-08-23T07:31:47.907Z,22.60
2022-08-23T07:34:16.770Z,22.70
2022-08-23T07:36:47.857Z,22.80
2022-08-23T07:39:17.667Z,22.80
2022-08-23T07:41:48.107Z,23.00
2022-08-23T07:44:18.590Z,22.90
2022-08-23T07:46:49.220Z,23.00
2022-08-23T07:49:18.503Z,23.00
2022-08-23T07:51:53.302Z,23.10
2022-08-23T07:54:23.055Z,23.10
2022-08-23T07:57:03.515Z,23.20
2022-08-23T07:59:50.588Z,23.20
2022-08-23T08:02:38.354Z,23.30
2022-08-23T08:05:10.248Z,23.30
2022-08-23T08:07:40.392Z,23.40
2022-08-23T08:10:10.060Z,23.50
2022-08-23T08:12:39.280Z,23.50
2022-08-23T08:15:20.037Z,23.60
2022-08-23T08:17:55.240Z,23.60
2022-08-23T08:38:28.935Z,23.90
2022-08-23T08:41:03.520Z,24.10
2022-08-23T08:43:35.527Z,24.00
2022-08-23T08:46:07.472Z,23.80
2022-08-23T08:48:40.027Z,23.70
2022-08-23T08:51:14.169Z,23.70
2022-08-23T08:53:46.875Z,23.70
2022-08-23T08:56:21.372Z,23.70
2022-08-23T08:59:04.156Z,23.70
2022-08-23T09:14:07.293Z,23.80
2022-08-23T09:26:49.401Z,24.20
2022-08-23T09:29:22.467Z,24.20
2022-08-23T09:31:54.072Z,24.30
2022-08-23T09:34:40.165Z,24.10
2022-08-23T09:37:15.288Z,23.90
2022-08-23T09:39:44.649Z,23.80
2022-08-23T09:42:31.810Z,23.70
2022-08-23T09:45:02.466Z,23.60
2022-08-23T09:47:34.563Z,23.70
2022-08-23T09:50:17.363Z,23.60
2022-08-23T09:52:48.957Z,23.80
2022-08-23T09:55:27.987Z,23.90
2022-08-23T09:57:56.503Z,24.10
2022-08-23T10:00:27.932Z,24.20
2022-08-23T10:03:19.260Z,24.40
2022-08-23T10:05:52.275Z,24.50
2022-08-23T10:08:27.479Z,24.60
2022-08-23T10:11:03.347Z,24.60
2022-08-23T10:13:34.939Z,24.60
2022-08-23T10:16:11.136Z,24.60
2022-08-23T10:18:53.781Z,24.50
2022-08-23T10:21:26.818Z,24.40
2022-08-23T10:24:02.222Z,24.30
2022-08-23T10:26:33.097Z,24.20
2022-08-23T10:29:30.427Z,24.20
2022-08-23T10:32:05.234Z,24.20
2022-08-23T10:34:51.540Z,24.10
2022-08-23T10:37:28.498Z,24.00
2022-08-23T10:40:03.968Z,24.00
2022-08-23T10:42:38.604Z,24.10
2022-08-23T10:45:12.352Z,24.10
2022-08-23T10:47:52.808Z,24.10
2022-08-23T10:50:22.381Z,24.10
2022-08-23T10:52:53.914Z,24.10
2022-08-23T10:55:36.835Z,24.10
2022-08-23T10:58:07.735Z,24.20
2022-08-23T11:00:38.428Z,24.20
2022-08-23T11:03:28.768Z,24.30
2022-08-23T11:06:19.377Z,24.30
2022-08-23T11:08:48.975Z,24.40
2022-08-23T11:11:40.866Z,24.50
2022-08-23T11:14:10.909Z,24.70
2022-08-23T11:16:43.278Z,24.80
2022-08-23T11:19:37.680Z,24.90
2022-08-23T11:22:24.665Z,24.80
2022-08-23T11:24:58.964Z,24.80
2022-08-23T11:27:35.767Z,24.70
2022-08-23T11:30:23.402Z,24.70
2022-08-23T11:33:10.822Z,24.60
2022-08-23T11:35:43.265Z,24.70
2022-08-23T11:38:14.646Z,24.70
2022-08-23T11:41:07.093Z,24.70
2022-08-23T11:43:40.109Z,24.70
2022-08-23T11:46:16.822Z,24.70
2022-08-23T11:48:49.854Z,24.80
2022-08-23T11:51:25.022Z,24.70
2022-08-23T11:54:03.689Z,24.80
2022-08-23T11:56:53.029Z,24.90
2022-08-23T11:59:31.427Z,24.90
2022-08-23T12:02:00.434Z,24.90
2022-08-23T12:04:33.716Z,24.90
2022-08-23T12:07:07.283Z,24.90
2022-08-23T12:09:56.214Z,24.90
2022-08-23T12:12:27.520Z,24.90
2022-08-23T12:14:58.987Z,24.90
2022-08-23T12:17:46.746Z,24.80
2022-08-23T12:20:24.303Z,24.80
2022-08-23T12:22:58.580Z,24.70
2022-08-23T12:25:27.492Z,24.70
2022-08-23T12:27:58.523Z,24.60
2022-08-23T12:30:36.947Z,24.60
2022-08-23T12:33:13.061Z,24.50
2022-08-23T12:35:46.656Z,24.40
2022-08-23T12:38:19.674Z,24.40
2022-08-23T12:40:49.763Z,24.40
2022-08-23T12:43:22.671Z,24.50
2022-08-23T12:45:54.118Z,24.60
2022-08-23T14:47:06.457Z,25.90
2022-08-23T14:49:42.284Z,26.00
2022-08-23T14:56:35.515Z,26.20
2022-08-23T14:59:04.313Z,26.20
2022-08-23T15:01:33.140Z,26.20
2022-08-23T15:04:03.988Z,26.30
2022-08-23T15:06:32.954Z,26.20
2022-08-23T15:09:01.934Z,26.20
2022-08-23T15:14:19.507Z,26.30
2022-08-23T15:16:48.063Z,26.50
2022-08-23T15:19:17.960Z,26.50
2022-08-23T15:21:46.742Z,26.60
2022-08-23T15:24:15.166Z,26.60
2022-08-23T15:26:43.939Z,26.60
2022-08-23T15:29:12.409Z,26.70
2022-08-23T15:31:41.072Z,26.70
2022-08-23T15:34:12.793Z,26.70
2022-08-23T15:36:43.776Z,26.60
2022-08-23T15:39:12.265Z,26.50
2022-08-23T15:41:41.504Z,26.40
2022-08-23T15:44:10.297Z,26.30
2022-08-23T15:46:38.865Z,26.10
2022-08-23T15:49:11.569Z,25.90
2022-08-23T15:51:42.503Z,25.70
2022-08-23T15:54:39.757Z,25.50
2022-08-23T16:01:25.767Z,25.20
2022-08-23T16:03:54.827Z,25.10
2022-08-23T16:06:23.625Z,25.00
2022-08-23T16:08:53.014Z,24.90
2022-08-23T16:11:22.329Z,24.80
2022-08-23T16:13:53.609Z,24.80
2022-08-23T16:16:26.427Z,24.70
2022-08-23T16:18:55.239Z,24.70
2022-08-23T16:21:25.392Z,24.60
2022-08-23T16:23:54.021Z,24.50
2022-08-23T16:26:30.857Z,24.50
2022-08-23T16:29:05.618Z,24.50
2022-08-23T16:31:38.915Z,24.50
2022-08-23T16:34:09.585Z,24.50
2022-08-23T16:36:38.335Z,24.50
2022-08-23T16:39:07.389Z,24.50
2022-08-23T16:41:36.533Z,24.40
2022-08-23T16:44:05.686Z,24.50
2022-08-23T16:46:35.761Z,24.40
2022-08-23T16:49:04.580Z,24.40
2022-08-23T16:51:33.449Z,24.30
2022-08-23T16:54:03.449Z,24.40
2022-08-23T16:56:32.026Z,24.30
2022-08-23T16:59:01.013Z,24.30
2022-08-23T17:01:47.415Z,24.30
2022-08-23T17:04:16.402Z,24.30
2022-08-23T17:06:45.744Z,24.20
2022-08-23T17:09:14.915Z,24.20
2022-08-23T17:11:53.459Z,24.10
2022-08-23T17:14:24.245Z,24.10
2022-08-23T17:16:55.420Z,24.00
2022-08-23T17:19:55.704Z,24.00
2022-08-23T17:22:53.408Z,24.00
2022-08-23T17:25:22.014Z,23.90
2022-08-23T17:27:51.306Z,23.90
2022-08-23T17:30:22.345Z,23.80
2022-08-23T17:32:52.353Z,23.80
2022-08-23T17:35:22.390Z,23.80
2022-08-23T17:37:51.358Z,23.80
2022-08-23T18:56:57.208Z,23.50
2022-08-23T18:59:25.994Z,22.80
2022-08-23T19:01:55.371Z,22.70
2022-08-23T19:04:24.555Z,22.50
2022-08-23T19:06:54.441Z,22.50
2022-08-23T19:09:23.435Z,22.40
2022-08-23T19:11:51.894Z,22.30
2022-08-23T19:14:22.052Z,22.20
2022-08-23T19:16:51.179Z,22.20
2022-08-23T21:06:04.147Z,20.90
2022-08-23T21:08:34.134Z,21.00
2022-08-23T21:11:03.700Z,20.90
2022-08-23T21:13:32.865Z,20.80
2022-08-23T21:16:29.278Z,20.80
2022-08-23T21:19:00.315Z,20.70
2022-08-23T21:21:53.853Z,20.80
2022-08-23T21:24:24.783Z,20.70
2022-08-23T21:26:53.309Z,20.80
2022-08-23T21:29:22.009Z,20.80
2022-08-23T21:31:56.164Z,20.80
2022-08-23T21:38:38.471Z,20.80
2022-08-23T21:41:09.858Z,20.80
2022-08-23T21:44:28.101Z,20.80
2022-08-23T21:46:58.353Z,20.70
2022-08-23T21:53:20.896Z,20.70
2022-08-23T21:55:49.543Z,20.70
2022-08-23T21:58:19.838Z,20.70
2022-08-23T22:00:48.211Z,20.70
2022-08-23T22:03:41.058Z,20.70
2022-08-23T22:06:14.784Z,20.70
2022-08-23T22:08:43.894Z,20.70
2022-08-23T22:11:46.531Z,20.70
2022-08-23T22:14:17.837Z,20.70
2022-08-23T22:16:46.573Z,20.70
2022-08-23T22:19:15.326Z,20.60
2022-08-23T22:21:44.097Z,20.70
2022-08-23T22:24:12.897Z,20.60
2022-08-23T22:26:42.152Z,20.60
2022-08-23T22:29:11.541Z,20.60
2022-08-23T22:31:43.366Z,20.60
2022-08-23T22:34:13.460Z,20.70
2022-08-23T22:36:42.151Z,20.60
2022-08-23T22:39:12.600Z,20.60
2022-08-23T22:42:10.142Z,20.60
2022-08-23T22:44:39.280Z,20.60
2022-08-23T22:51:06.582Z,20.60
2022-08-23T22:57:27.521Z,20.60
2022-08-23T22:59:56.224Z,20.60
2022-08-23T23:12:10.095Z,20.70
2022-08-23T23:24:00.939Z,20.70
2022-08-23T23:26:31.214Z,20.70
2022-08-23T23:28:59.776Z,20.60
2022-08-23T23:35:45.105Z,20.60
2022-08-23T23:38:14.421Z,20.50
2022-08-23T23:40:44.086Z,20.50
2022-08-23T23:47:18.816Z,20.50
2022-08-23T23:49:48.755Z,20.50
2022-08-23T23:52:46.184Z,20.50
2022-08-23T23:59:29.077Z,20.50
